KAKH/AKH METAR and TAF weather

Enter ICAO airport designator
Station Type Date Time Source
KAKH METAR 2018/01/24 06:54 UTC NOAA

KAKH 240654Z AUTO 29005KT 10SM CLR 05/M02 A3005 RMK AO2 SLP176 T00501022


Station Type Date Time Source
KAKH Decoded METAR 2018/01/24 06:54 UTC NOAA

GASTONIA MUNICIPAL AIRPORT, NC, United States (KAKH) 35-12N 81-09W 243M
Jan 24, 2018 - 01:54 AM EST / 2018.01.24 0654 UTC
Wind: from the WNW (290 degrees) at 6 MPH (5 KT):0
Visibility: 10 mile(s):0
Sky conditions: clear
Temperature: 41.0 F (5.0 C)
Dew Point: 28.0 F (-2.2 C)
Relative Humidity: 59%
Pressure (altimeter): 30.05 in. Hg (1017 hPa)
ob: KAKH 240654Z AUTO 29005KT 10SM CLR 05/M02 A3005 RMK AO2 SLP176 T00501022
cycle: 7

Station Type Date Time Source
KAKH TAF UTC NOAA

Error!


Example: see airport list